createdAt,value
2019-05-09T00:00:27.150Z,15.57
2019-05-09T00:02:57.955Z,15.03
2019-05-09T00:05:29.422Z,14.07
2019-05-09T00:08:00.263Z,15.10
2019-05-09T00:10:39.291Z,15.17
2019-05-09T00:13:03.803Z,14.33
2019-05-09T00:15:34.879Z,15.30
2019-05-09T00:18:05.688Z,13.90
2019-05-09T00:21:04.461Z,14.50
2019-05-09T00:23:35.323Z,12.37
2019-05-09T00:26:06.437Z,12.17
2019-05-09T00:28:40.637Z,13.03
2019-05-09T00:31:43.781Z,11.90
2019-05-09T00:34:23.472Z,12.57
2019-05-09T00:36:55.819Z,12.53
2019-05-09T00:39:26.373Z,13.17
2019-05-09T00:41:57.151Z,12.97
2019-05-09T00:44:29.890Z,13.83
2019-05-09T00:47:06.506Z,14.23
2019-05-09T00:49:37.727Z,15.60
2019-05-09T00:52:09.065Z,16.47
2019-05-09T00:54:39.849Z,16.67
2019-05-09T00:57:13.810Z,19.40
2019-05-09T00:59:45.162Z,19.27
2019-05-09T01:02:15.679Z,18.33
2019-05-09T01:04:46.630Z,19.00
2019-05-09T01:07:17.222Z,20.40
2019-05-09T01:09:47.914Z,18.77
2019-05-09T01:12:18.490Z,18.97
2019-05-09T01:14:49.119Z,20.13
2019-05-09T01:17:19.764Z,21.10
2019-05-09T01:19:50.876Z,21.73
2019-05-09T01:22:23.559Z,18.83
2019-05-09T01:24:53.536Z,19.57
2019-05-09T01:27:24.409Z,20.03
2019-05-09T01:29:55.065Z,20.43
2019-05-09T01:32:44.875Z,18.83
2019-05-09T01:35:15.474Z,18.00
2019-05-09T01:37:46.286Z,16.83
2019-05-09T01:40:18.063Z,16.57
2019-05-09T01:42:49.090Z,16.27
2019-05-09T01:45:19.875Z,15.53
2019-05-09T01:47:50.343Z,16.47
2019-05-09T01:50:20.833Z,15.53
2019-05-09T01:52:53.334Z,15.43
2019-05-09T01:55:43.284Z,15.57
2019-05-09T01:58:14.018Z,15.47
2019-05-09T02:00:44.935Z,14.77
2019-05-09T02:03:16.629Z,13.37
2019-05-09T02:05:47.325Z,13.10
2019-05-09T02:08:17.810Z,14.17
2019-05-09T02:10:48.474Z,13.00
2019-05-09T02:13:18.959Z,12.73
2019-05-09T02:16:00.608Z,13.13
2019-05-09T02:18:37.008Z,12.13
2019-05-09T02:21:11.363Z,12.63
2019-05-09T02:23:43.064Z,11.67
2019-05-09T02:26:13.657Z,10.33
2019-05-09T02:28:44.477Z,11.00
2019-05-09T02:31:16.448Z,11.70
2019-05-09T02:33:47.168Z,11.47
2019-05-09T02:36:18.954Z,10.80
2019-05-09T02:38:50.134Z,10.83
2019-05-09T02:41:20.783Z,11.10
2019-05-09T02:43:52.531Z,11.13
2019-05-09T02:46:38.655Z,11.70
2019-05-09T02:49:10.452Z,9.73
2019-05-09T02:51:40.916Z,10.50
2019-05-09T02:54:11.648Z,10.17
2019-05-09T02:56:42.124Z,10.23
2019-05-09T02:59:43.960Z,11.27
2019-05-09T03:02:22.798Z,11.43
2019-05-09T03:04:53.482Z,10.97
2019-05-09T03:07:42.942Z,11.90
2019-05-09T03:10:13.480Z,10.87
2019-05-09T03:12:44.434Z,11.93
2019-05-09T03:15:18.417Z,12.73
2019-05-09T03:17:49.505Z,11.33
2019-05-09T03:20:39.260Z,11.53
2019-05-09T03:23:10.348Z,11.97
2019-05-09T03:25:41.301Z,11.60
2019-05-09T03:28:40.000Z,11.40
2019-05-09T03:31:11.540Z,10.43
2019-05-09T03:33:42.566Z,10.60
2019-05-09T03:36:13.601Z,10.27
2019-05-09T03:38:44.479Z,10.30
2019-05-09T03:41:17.576Z,8.93
2019-05-09T03:43:48.238Z,9.20
2019-05-09T03:46:38.398Z,9.73
2019-05-09T03:49:09.818Z,9.03
2019-05-09T03:51:40.567Z,8.80
2019-05-09T03:54:11.376Z,8.40
2019-05-09T03:56:47.942Z,8.97
2019-05-09T03:59:19.438Z,9.20
2019-05-09T04:01:50.442Z,10.07
2019-05-09T04:04:21.266Z,9.33
2019-05-09T04:06:51.844Z,7.93
2019-05-09T04:09:22.260Z,9.30
2019-05-09T04:11:52.958Z,10.60
2019-05-09T04:14:28.030Z,9.50
2019-05-09T04:16:57.737Z,10.50
2019-05-09T04:19:28.207Z,10.60
2019-05-09T04:22:02.084Z,10.43
2019-05-09T04:24:31.592Z,10.97
2019-05-09T04:27:09.213Z,13.00
2019-05-09T04:29:39.821Z,13.40
2019-05-09T04:32:10.403Z,16.87
2019-05-09T04:34:40.939Z,11.83
2019-05-09T04:37:12.332Z,10.43
2019-05-09T04:39:42.990Z,11.40
2019-05-09T04:42:13.441Z,12.03
2019-05-09T04:44:57.404Z,31.17
2019-05-09T04:47:27.656Z,13.00
2019-05-09T04:49:58.389Z,12.73
2019-05-09T04:52:28.983Z,11.57
2019-05-09T04:54:59.561Z,11.63
2019-05-09T04:57:30.374Z,11.07
2019-05-09T05:00:00.990Z,10.97
2019-05-09T05:02:48.422Z,12.20
2019-05-09T05:05:19.696Z,10.80
2019-05-09T05:07:50.751Z,11.27
2019-05-09T05:10:21.545Z,11.37
2019-05-09T05:12:53.054Z,11.00
2019-05-09T05:15:23.888Z,9.80
2019-05-09T05:17:54.402Z,10.13
2019-05-09T05:20:27.750Z,10.23
2019-05-09T05:23:13.828Z,10.40
2019-05-09T05:25:44.546Z,11.33
2019-05-09T05:28:17.555Z,11.30
2019-05-09T05:30:48.201Z,11.23
2019-05-09T05:33:51.170Z,12.10
2019-05-09T05:36:19.263Z,12.60
2019-05-09T05:38:49.811Z,11.93
2019-05-09T05:41:20.651Z,10.90
2019-05-09T05:43:51.301Z,11.43
2019-05-09T05:46:34.553Z,11.83
2019-05-09T05:49:08.026Z,11.80
2019-05-09T05:51:50.901Z,12.63
2019-05-09T05:54:22.239Z,12.43
2019-05-09T05:56:53.178Z,13.80
2019-05-09T05:59:23.812Z,13.40
2019-05-09T06:01:54.577Z,13.90
2019-05-09T06:04:27.409Z,13.93
2019-05-09T06:06:58.837Z,14.23
2019-05-09T06:09:29.759Z,14.00
2019-05-09T06:12:00.767Z,14.90
2019-05-09T06:14:31.647Z,15.27
2019-05-09T06:17:02.670Z,14.50
2019-05-09T06:19:33.384Z,14.13
2019-05-09T06:22:04.003Z,13.33
2019-05-09T06:24:34.954Z,12.37
2019-05-09T06:27:09.789Z,11.70
2019-05-09T06:29:38.883Z,11.00
2019-05-09T06:32:10.114Z,11.40
2019-05-09T06:34:42.132Z,10.60
2019-05-09T06:37:13.090Z,11.33
2019-05-09T06:39:44.112Z,10.40
2019-05-09T06:42:14.822Z,10.40
2019-05-09T06:45:04.464Z,12.23
2019-05-09T06:47:38.175Z,10.77
2019-05-09T06:50:11.374Z,10.73
2019-05-09T06:52:42.389Z,10.50
2019-05-09T06:55:13.198Z,12.40
2019-05-09T06:57:44.494Z,11.80
2019-05-09T07:00:23.867Z,12.30
2019-05-09T07:03:00.884Z,11.07
2019-05-09T07:05:52.623Z,9.33
2019-05-09T07:08:33.020Z,11.23
2019-05-09T07:11:04.068Z,11.23
2019-05-09T07:13:34.758Z,12.07
2019-05-09T07:16:06.005Z,11.47
2019-05-09T07:18:38.308Z,12.40
2019-05-09T07:21:09.711Z,11.53
2019-05-09T07:23:40.511Z,10.23
2019-05-09T07:26:19.540Z,10.67
2019-05-09T07:28:59.538Z,11.20
2019-05-09T07:31:39.129Z,11.33
2019-05-09T07:34:22.449Z,11.17
2019-05-09T07:36:53.590Z,11.87
2019-05-09T07:39:24.477Z,12.93
2019-05-09T07:41:55.234Z,11.90
2019-05-09T07:44:29.894Z,13.20
2019-05-09T07:47:00.183Z,12.77
2019-05-09T07:49:32.149Z,14.47
2019-05-09T07:52:06.842Z,12.03
2019-05-09T07:54:37.554Z,11.50
2019-05-09T07:57:08.519Z,12.40
2019-05-09T07:59:40.206Z,13.57
2019-05-09T08:02:11.236Z,12.17
2019-05-09T08:04:42.114Z,14.00
2019-05-09T08:07:12.848Z,12.60
2019-05-09T08:09:43.557Z,13.33
2019-05-09T08:12:14.435Z,13.83
2019-05-09T08:14:55.346Z,14.07
2019-05-09T08:17:18.188Z,13.60
2019-05-09T08:19:49.052Z,12.83
2019-05-09T08:22:25.384Z,13.53
2019-05-09T08:24:52.356Z,14.80
2019-05-09T08:27:23.166Z,18.10
2019-05-09T08:29:53.928Z,18.40
2019-05-09T08:32:24.740Z,15.70
2019-05-09T08:34:57.488Z,14.97
2019-05-09T08:37:28.436Z,15.57
2019-05-09T08:39:59.299Z,16.93
2019-05-09T08:42:30.034Z,15.40
2019-05-09T08:45:00.747Z,14.97
2019-05-09T08:47:31.441Z,15.83
2019-05-09T08:50:17.682Z,16.10
2019-05-09T08:52:48.643Z,15.60
2019-05-09T08:55:19.554Z,16.67
2019-05-09T08:57:50.264Z,15.67
2019-05-09T09:00:21.371Z,15.47
2019-05-09T09:02:52.263Z,14.87
2019-05-09T09:05:23.006Z,16.00
2019-05-09T09:07:57.585Z,15.97
2019-05-09T09:10:29.086Z,16.37
2019-05-09T09:12:59.324Z,15.33
2019-05-09T09:15:55.612Z,14.33
2019-05-09T09:18:03.706Z,13.57
2019-05-09T09:20:34.532Z,13.97
2019-05-09T09:23:05.214Z,15.43
2019-05-09T09:25:38.925Z,14.43
2019-05-09T09:28:09.949Z,14.77
2019-05-09T09:30:40.911Z,12.97
2019-05-09T09:33:13.946Z,12.60
2019-05-09T09:35:44.088Z,12.07
2019-05-09T09:38:15.008Z,11.90
2019-05-09T09:40:47.792Z,11.20
2019-05-09T09:43:18.213Z,11.90
2019-05-09T09:46:05.135Z,11.87
2019-05-09T09:48:21.760Z,12.00
2019-05-09T09:50:52.497Z,12.23
2019-05-09T09:53:22.985Z,11.87
2019-05-09T09:55:54.036Z,10.63
2019-05-09T09:58:27.403Z,10.53
2019-05-09T10:01:23.157Z,11.73
2019-05-09T10:04:16.711Z,10.20
2019-05-09T10:06:39.091Z,6.30
2019-05-09T10:09:10.668Z,6.17
2019-05-09T10:11:41.545Z,5.30
2019-05-09T10:14:15.540Z,3.53
2019-05-09T10:17:05.532Z,3.47
2019-05-09T10:19:41.825Z,2.70
2019-05-09T10:22:24.029Z,3.17
2019-05-09T10:24:49.073Z,3.30
2019-05-09T10:27:19.912Z,5.33
2019-05-09T10:29:50.918Z,5.03
2019-05-09T10:32:21.631Z,5.73
2019-05-09T10:34:52.351Z,2.83
2019-05-09T10:37:22.920Z,3.20
2019-05-09T10:39:54.064Z,3.20
2019-05-09T10:42:43.663Z,3.37
2019-05-09T10:45:31.354Z,4.23
2019-05-09T10:48:02.240Z,3.40
2019-05-09T10:50:34.704Z,3.80
2019-05-09T10:53:07.998Z,3.13
2019-05-09T10:55:38.652Z,4.20
2019-05-09T10:58:09.629Z,3.57
2019-05-09T11:00:40.372Z,3.70
2019-05-09T11:03:11.383Z,3.83
2019-05-09T11:05:42.044Z,3.60
2019-05-09T11:08:12.873Z,3.40
2019-05-09T11:10:47.354Z,3.70
2019-05-09T11:13:18.139Z,3.80
2019-05-09T11:15:49.074Z,3.73
2019-05-09T11:18:19.642Z,3.73
2019-05-09T11:20:50.437Z,3.77
2019-05-09T11:23:22.985Z,3.70
2019-05-09T11:25:53.557Z,3.80
2019-05-09T11:28:24.373Z,4.33
2019-05-09T11:30:55.051Z,4.43
2019-05-09T11:33:27.791Z,4.00
2019-05-09T11:35:58.264Z,3.97
2019-05-09T11:38:34.382Z,3.63
2019-05-09T11:41:01.219Z,7.83
2019-05-09T11:43:31.856Z,13.43
2019-05-09T11:46:02.570Z,17.77
2019-05-09T11:48:34.127Z,10.77
2019-05-09T11:51:05.184Z,4.10
2019-05-09T11:53:37.002Z,4.37
2019-05-09T11:56:08.334Z,4.43
2019-05-09T11:58:39.298Z,4.00
2019-05-09T12:01:09.826Z,4.83
2019-05-09T12:03:40.717Z,8.77
2019-05-09T12:06:11.306Z,3.87
2019-05-09T12:08:42.369Z,8.13
2019-05-09T12:11:13.158Z,10.13
2019-05-09T12:13:43.938Z,8.20
2019-05-09T12:16:15.019Z,8.40
2019-05-09T12:18:48.515Z,5.93
2019-05-09T12:21:19.541Z,7.30
2019-05-09T12:23:51.092Z,9.63
2019-05-09T12:26:21.598Z,8.33
2019-05-09T12:28:52.798Z,4.63
2019-05-09T12:31:23.507Z,4.90
2019-05-09T12:33:54.358Z,3.73
2019-05-09T12:36:28.375Z,10.47
2019-05-09T12:38:59.085Z,5.60
2019-05-09T12:41:31.694Z,4.23
2019-05-09T12:44:03.482Z,5.17
2019-05-09T12:46:34.223Z,8.30
2019-05-09T12:49:04.723Z,9.50
2019-05-09T12:51:37.052Z,4.53
2019-05-09T12:54:08.861Z,4.57
2019-05-09T12:56:41.094Z,4.00
2019-05-09T12:59:11.904Z,3.70
2019-05-09T13:01:42.513Z,4.80
2019-05-09T13:04:14.221Z,3.40
2019-05-09T13:06:44.880Z,3.77
2019-05-09T13:09:17.822Z,4.07
2019-05-09T13:11:48.394Z,3.50
2019-05-09T13:14:19.671Z,3.97
2019-05-09T13:17:01.591Z,3.60
2019-05-09T13:19:38.207Z,4.27
2019-05-09T13:22:09.046Z,4.57
2019-05-09T13:24:39.905Z,4.10
2019-05-09T13:27:10.994Z,4.33
2019-05-09T13:29:41.625Z,3.70
2019-05-09T13:32:12.113Z,3.80
2019-05-09T13:34:42.914Z,4.60
2019-05-09T13:37:13.668Z,4.53
2019-05-09T13:39:44.468Z,4.50
2019-05-09T13:42:19.537Z,4.40
2019-05-09T13:44:50.434Z,4.53
2019-05-09T13:47:21.362Z,4.40
2019-05-09T13:49:51.984Z,7.67
2019-05-09T13:52:22.903Z,10.23
2019-05-09T13:54:53.466Z,5.30
2019-05-09T13:57:27.460Z,4.93
2019-05-09T13:59:58.508Z,4.50
2019-05-09T14:02:29.762Z,4.43
2019-05-09T14:05:00.608Z,4.37
2019-05-09T14:07:31.392Z,4.33
2019-05-09T14:10:01.918Z,4.63
2019-05-09T14:12:32.939Z,3.83
2019-05-09T14:15:03.546Z,4.87
2019-05-09T14:17:48.382Z,4.10
2019-05-09T14:20:08.863Z,4.67
2019-05-09T14:22:39.279Z,4.43
2019-05-09T14:25:11.622Z,4.60
2019-05-09T14:27:42.211Z,4.30
2019-05-09T14:30:13.845Z,4.90
2019-05-09T14:32:44.651Z,5.17
2019-05-09T14:35:17.949Z,5.33
2019-05-09T14:37:48.804Z,5.30
2019-05-09T14:40:19.694Z,5.83
2019-05-09T14:42:50.286Z,5.67
2019-05-09T14:45:21.014Z,9.70
2019-05-09T14:47:51.619Z,13.43
2019-05-09T14:50:22.465Z,13.27
2019-05-09T14:52:53.337Z,11.57
2019-05-09T14:55:24.274Z,14.40
2019-05-09T14:57:55.070Z,11.03
2019-05-09T15:00:26.291Z,7.23
2019-05-09T15:02:58.138Z,7.00
2019-05-09T15:05:28.834Z,8.93
2019-05-09T15:07:59.542Z,8.10
2019-05-09T15:10:30.220Z,8.93
2019-05-09T15:13:00.999Z,8.40
2019-05-09T15:15:32.746Z,8.17
2019-05-09T15:18:03.473Z,7.40
2019-05-09T15:20:37.934Z,7.63
2019-05-09T15:23:08.639Z,7.17
2019-05-09T15:25:39.318Z,6.80
2019-05-09T15:28:10.137Z,7.33
2019-05-09T15:30:40.921Z,8.00
2019-05-09T15:33:11.640Z,8.37
2019-05-09T15:35:42.597Z,8.97
2019-05-09T15:38:13.403Z,7.13
2019-05-09T15:40:44.273Z,8.70
2019-05-09T15:43:15.139Z,8.10
2019-05-09T15:45:54.369Z,15.60
2019-05-09T15:48:27.341Z,8.83
2019-05-09T15:50:58.255Z,9.83
2019-05-09T15:53:29.064Z,21.87
2019-05-09T15:56:00.142Z,18.67
2019-05-09T15:58:30.922Z,44.30
2019-05-09T16:01:01.805Z,10.83
2019-05-09T16:03:32.985Z,8.40
2019-05-09T16:06:03.919Z,7.37
2019-05-09T16:08:37.888Z,7.17
2019-05-09T16:11:08.739Z,7.60
2019-05-09T16:13:39.728Z,8.27
2019-05-09T16:16:10.962Z,8.83
2019-05-09T16:18:42.962Z,7.53
2019-05-09T16:21:15.136Z,8.67
2019-05-09T16:23:48.396Z,9.07
2019-05-09T16:26:18.475Z,11.87
2019-05-09T16:28:50.475Z,23.73
2019-05-09T16:31:21.362Z,12.50
2019-05-09T16:33:52.144Z,10.77
2019-05-09T16:36:23.096Z,14.03
2019-05-09T16:38:53.999Z,23.17
2019-05-09T16:41:24.887Z,30.73
2019-05-09T16:43:58.163Z,28.63
2019-05-09T16:46:28.710Z,22.33
2019-05-09T16:49:00.664Z,17.93
2019-05-09T16:51:31.647Z,28.30
2019-05-09T16:54:02.396Z,13.20
2019-05-09T16:56:33.063Z,9.67
2019-05-09T16:59:04.886Z,8.93
2019-05-09T17:01:39.502Z,9.03
2019-05-09T17:04:09.624Z,8.53
2019-05-09T17:06:40.946Z,8.17
2019-05-09T17:09:13.454Z,9.50
2019-05-09T17:11:47.876Z,8.77
2019-05-09T17:14:19.306Z,9.70
2019-05-09T17:16:52.783Z,29.90
2019-05-09T17:19:22.601Z,11.80
2019-05-09T17:22:16.604Z,10.40
2019-05-09T17:24:49.406Z,10.53
2019-05-09T17:27:20.213Z,19.77
2019-05-09T17:29:51.278Z,26.03
2019-05-09T17:32:22.072Z,38.37
2019-05-09T17:34:52.963Z,25.83
2019-05-09T17:37:28.568Z,12.17
2019-05-09T17:39:58.173Z,11.63
2019-05-09T17:42:29.261Z,10.37
2019-05-09T17:45:00.525Z,15.90
2019-05-09T17:47:31.364Z,11.10
2019-05-09T17:50:02.616Z,10.60
2019-05-09T17:52:33.595Z,10.07
2019-05-09T17:55:04.656Z,11.00
2019-05-09T17:57:35.648Z,10.90
2019-05-09T18:00:08.140Z,10.93
2019-05-09T18:02:38.774Z,11.10
2019-05-09T18:05:09.444Z,11.87
2019-05-09T18:07:40.391Z,12.37
2019-05-09T18:10:11.652Z,11.97
2019-05-09T18:12:42.664Z,17.47
2019-05-09T18:15:14.068Z,14.93
2019-05-09T18:17:44.979Z,19.33
2019-05-09T18:20:17.626Z,14.53
2019-05-09T18:22:48.114Z,12.97
2019-05-09T18:25:18.931Z,13.70
2019-05-09T18:27:49.629Z,13.23
2019-05-09T18:30:20.798Z,13.40
2019-05-09T18:33:03.161Z,13.07
2019-05-09T18:35:33.996Z,14.17
2019-05-09T18:38:07.808Z,14.60
2019-05-09T18:40:38.138Z,38.73
2019-05-09T18:43:08.944Z,18.00
2019-05-09T18:45:39.544Z,16.93
2019-05-09T18:48:10.247Z,19.07
2019-05-09T18:50:41.120Z,19.20
2019-05-09T18:53:12.195Z,20.27
2019-05-09T18:55:43.238Z,22.20
2019-05-09T18:58:14.310Z,20.43
2019-05-09T19:00:45.365Z,22.20
2019-05-09T19:03:16.015Z,21.87
2019-05-09T19:05:46.904Z,21.80
2019-05-09T19:08:17.705Z,21.70
2019-05-09T19:10:52.143Z,24.57
2019-05-09T19:13:21.213Z,28.40
2019-05-09T19:16:25.795Z,27.37
2019-05-09T19:19:33.939Z,24.90
2019-05-09T19:22:21.047Z,26.47
2019-05-09T19:24:38.033Z,26.17
2019-05-09T19:27:09.048Z,24.63
2019-05-09T19:29:41.181Z,23.23
2019-05-09T19:32:11.910Z,23.37
2019-05-09T19:34:44.619Z,23.73
2019-05-09T19:37:15.541Z,24.47
2019-05-09T19:39:46.449Z,22.30
2019-05-09T19:42:17.210Z,23.40
2019-05-09T19:44:48.416Z,33.77
2019-05-09T19:47:19.348Z,28.37
2019-05-09T19:49:50.181Z,24.93
2019-05-09T19:52:36.209Z,22.97
2019-05-09T19:54:53.940Z,22.50
2019-05-09T19:57:24.828Z,22.50
2019-05-09T19:59:55.360Z,22.50
2019-05-09T20:02:26.116Z,22.07
2019-05-09T20:04:56.742Z,21.67
2019-05-09T20:07:30.574Z,22.97
2019-05-09T20:10:21.789Z,23.83
2019-05-09T20:13:21.813Z,25.70
2019-05-09T20:15:52.659Z,28.43
2019-05-09T20:18:24.450Z,26.87
2019-05-09T20:20:55.556Z,25.13
2019-05-09T20:23:26.687Z,24.87
2019-05-09T20:25:58.245Z,27.40
2019-05-09T20:28:29.297Z,29.80
2019-05-09T20:31:00.009Z,29.47
2019-05-09T20:33:31.033Z,30.53
2019-05-09T20:36:02.006Z,37.40
2019-05-09T20:38:33.891Z,28.60
2019-05-09T20:41:04.927Z,30.13
2019-05-09T20:43:35.915Z,33.17
2019-05-09T20:46:10.115Z,34.40
2019-05-09T20:48:39.619Z,31.90
2019-05-09T20:51:10.799Z,33.80
2019-05-09T20:53:41.739Z,31.53
2019-05-09T20:56:12.512Z,32.57
2019-05-09T20:58:43.718Z,29.43
2019-05-09T21:01:14.624Z,29.20
2019-05-09T21:03:59.030Z,27.73
2019-05-09T21:06:18.166Z,25.73
2019-05-09T21:08:48.944Z,24.83
2019-05-09T21:11:21.179Z,26.93
2019-05-09T21:13:52.367Z,25.80
2019-05-09T21:16:23.459Z,26.13
2019-05-09T21:18:54.590Z,26.17
2019-05-09T21:21:25.492Z,26.53
2019-05-09T21:23:56.667Z,25.37
2019-05-09T21:26:27.493Z,25.60
2019-05-09T21:28:58.440Z,26.00
2019-05-09T21:31:29.294Z,36.13
2019-05-09T21:34:00.364Z,27.33
2019-05-09T21:36:31.238Z,26.70
2019-05-09T21:39:02.244Z,27.80
2019-05-09T21:41:34.552Z,24.63
2019-05-09T21:44:05.506Z,26.07
2019-05-09T21:46:36.304Z,31.13
2019-05-09T21:49:06.989Z,32.07
2019-05-09T21:51:38.820Z,28.93
2019-05-09T21:54:09.328Z,25.83
2019-05-09T21:56:39.845Z,24.43
2019-05-09T21:59:10.464Z,23.07
2019-05-09T22:01:42.165Z,23.03
2019-05-09T22:04:12.903Z,21.70
2019-05-09T22:06:44.464Z,20.77
2019-05-09T22:09:15.202Z,21.50
2019-05-09T22:11:46.417Z,20.97
2019-05-09T22:14:17.036Z,21.70
2019-05-09T22:16:49.377Z,20.10
2019-05-09T22:19:19.911Z,19.90
2019-05-09T22:21:50.448Z,19.87
2019-05-09T22:24:20.947Z,19.57
2019-05-09T22:26:51.724Z,23.00
2019-05-09T22:29:22.295Z,20.80
2019-05-09T22:31:52.915Z,20.90
2019-05-09T22:34:24.581Z,20.93
2019-05-09T22:36:55.541Z,20.10
2019-05-09T22:39:26.019Z,19.20
2019-05-09T22:41:56.827Z,18.40
2019-05-09T22:44:27.511Z,20.07
2019-05-09T22:46:58.320Z,19.37
2019-05-09T22:49:29.471Z,19.00
2019-05-09T22:52:00.131Z,21.17
2019-05-09T22:54:30.985Z,19.57
2019-05-09T22:57:01.668Z,18.20
2019-05-09T22:59:32.432Z,16.80
2019-05-09T23:02:06.846Z,15.33
2019-05-09T23:04:35.335Z,14.53
2019-05-09T23:07:06.073Z,13.83
2019-05-09T23:09:36.660Z,13.57
2019-05-09T23:12:07.294Z,12.53
2019-05-09T23:14:37.851Z,10.87
2019-05-09T23:17:09.427Z,11.80
2019-05-09T23:19:40.020Z,10.17
2019-05-09T23:22:11.309Z,11.73
2019-05-09T23:24:44.714Z,15.43
2019-05-09T23:27:16.932Z,15.00
2019-05-09T23:29:47.699Z,14.70
2019-05-09T23:32:27.742Z,15.03
2019-05-09T23:34:58.612Z,13.80
2019-05-09T23:37:29.134Z,11.10
2019-05-09T23:39:59.720Z,11.47
2019-05-09T23:42:30.423Z,12.17
2019-05-09T23:45:00.918Z,11.80
2019-05-09T23:47:31.633Z,11.37
2019-05-09T23:50:02.213Z,11.97
2019-05-09T23:52:32.889Z,12.57
2019-05-09T23:55:21.099Z,12.13
2019-05-09T23:58:09.412Z,12.33
